This is the latest recevied weather packets stored in our database for station/object KI5MKI. If no packets are shown the sender has not sent any weather packets the latest 1 day(s).
| Time | Temp. | Humidity | Pressure | Rain* | Wind** | Luminosity | Snow |
|---|---|---|---|---|---|---|---|
| 1778011704 | 27.78° C | 70% | 1005.8 hPa | 0 mm | 4.02 m/s, 139° | 814 W/m² | - |
| 1778011400 | 27.78° C | 70% | 1005.8 hPa | 0 mm | 1.79 m/s, 196° | 566 W/m² | - |
| 1778011095 | 27.78° C | 69% | 1006 hPa | 0 mm | 2.24 m/s, 185° | 346 W/m² | - |
| 1778010794 | 27.78° C | 70% | 1005.7 hPa | 0 mm | 1.79 m/s, 199° | 440 W/m² | - |
| 1778010490 | 27.78° C | 68% | 1005.7 hPa | 0 mm | 5.36 m/s, 147° | 527 W/m² | - |
| 1778010188 | 27.22° C | 69% | 1005.8 hPa | 0 mm | 1.79 m/s, 183° | 834 W/m² | - |
| 1778009882 | 27.78° C | 70% | 1006 hPa | 0 mm | 1.34 m/s, 206° | 696 W/m² | - |
| 1778009581 | 27.22° C | 70% | 1005.8 hPa | 0 mm | 2.24 m/s, 144° | 573 W/m² | - |
| 1778009279 | 26.67° C | 70% | 1005.9 hPa | 0 mm | 2.24 m/s, 163° | 487 W/m² | - |
| 1778008976 | 27.22° C | 70% | 1006 hPa | 0 mm | 1.34 m/s, 149° | 441 W/m² | - |
| 1778008674 | 26.67° C | 70% | 1005.9 hPa | 0 mm | 3.13 m/s, 158° | 749 W/m² | - |
| 1778008372 | 26.67° C | 70% | 1006.2 hPa | 0 mm | 1.34 m/s, 191° | 487 W/m² | - |
| 1778008068 | 26.11° C | 71% | 1006 hPa | 0 mm | 2.24 m/s, 188° | 440 W/m² | - |
| 1778007763 | 26.67° C | 70% | 1006.1 hPa | 0 mm | 2.68 m/s, 153° | 370 W/m² | - |
| 1778007460 | 26.67° C | 71% | 1005.9 hPa | 0 mm | 1.34 m/s, 115° | 378 W/m² | - |
| 1778007157 | 26.67° C | 71% | 1005.8 hPa | 0 mm | 2.68 m/s, 155° | 350 W/m² | - |
| 1778006852 | 26.67° C | 71% | 1005.8 hPa | 0 mm | 2.68 m/s, 170° | 350 W/m² | - |
| 1778006550 | 26.67° C | 70% | 1005.9 hPa | 0 mm | 2.24 m/s, 174° | 466 W/m² | - |
| 1778006247 | 26.67° C | 71% | 1005.9 hPa | 0 mm | 1.79 m/s, 163° | 581 W/m² | - |
| 1778005951 | 26.67° C | 71% | 1005.8 hPa | 0 mm | 1.79 m/s, 173° | 588 W/m² | - |
| 1778005640 | 26.67° C | 70% | 1005.8 hPa | 0 mm | 2.68 m/s, 157° | 441 W/m² | - |
| 1778005338 | 26.67° C | 69% | 1005.8 hPa | 0 mm | 1.79 m/s, 248° | 434 W/m² | - |
| 1778005033 | 27.22° C | 68% | 1006 hPa | 0 mm | 5.36 m/s, 162° | 483 W/m² | - |
| 1778004732 | 27.22° C | 69% | 1005.8 hPa | 0 mm | 1.34 m/s, 267° | 550 W/m² | - |
| 1778004428 | 27.22° C | 69% | 1005.8 hPa | 0 mm | 3.13 m/s, 172° | 526 W/m² | - |
* Rain latest hour (hover to see other rain measurements)
** Current wind speed in m/s (hover to see current wind gust speed)